Time;durP1;ratioP1;P1;durP2;ratioP2;P2;SDS_P1;SDS_P2;PMS_P1;PMS_P2;Temp;Humidity;BMP_temperature;BMP_pressure;BME280_temperature;BME280_humidity;BME280_pressure;Samples;Min_cycle;Max_cycle;Signal;HPM_P1;HPM_P2
2022/12/31 00:01:46;;;;;;;115.97;58.05;;;;;;;4.82;74.18;96155.97;4981218;28;20434;-79
2022/12/31 00:04:11;;;;;;;127.43;60.38;;;;;;;5.18;75.00;96234.22;4981319;28;20405;-79
2022/12/31 00:06:36;;;;;;;143.50;64.50;;;;;;;5.04;75.49;96243.19;4980886;28;20026;-79
2022/12/31 00:09:05;;;;;;;138.40;63.28;;;;;;;5.20;75.53;96240.03;4980517;28;20501;-79
2022/12/31 00:11:32;;;;;;;122.28;59.53;;;;;;;5.44;74.78;96257.66;4968294;28;20511;-79
2022/12/31 00:13:57;;;;;;;129.68;63.65;;;;;;;5.27;75.18;96213.69;4980568;28;20045;-77
2022/12/31 00:16:24;;;;;;;132.35;62.15;;;;;;;5.54;74.81;96248.47;4980241;28;20026;-78
2022/12/31 00:18:52;;;;;;;131.27;60.85;;;;;;;5.60;75.02;96253.69;4994227;28;20046;-78
2022/12/31 00:21:18;;;;;;;135.20;61.92;;;;;;;5.19;74.84;96183.19;4979532;28;20050;-78
2022/12/31 00:23:44;;;;;;;138.52;60.35;;;;;;;5.70;74.69;96261.09;4961161;28;20038;-78
2022/12/31 00:26:20;;;;;;;124.95;62.30;;;;;;;4.47;74.60;96061.06;4961525;28;20131;-79
2022/12/31 00:28:46;;;;;;;127.32;61.35;;;;;;;5.72;74.91;96259.84;4979235;28;20528;-78
2022/12/31 00:31:20;;;;;;;131.88;62.47;;;;;;;4.69;74.87;96097.47;4960878;28;20042;-77
2022/12/31 00:33:46;;;;;;;120.60;58.38;;;;;;;5.18;75.56;96201.84;4979491;28;20123;-78
2022/12/31 00:36:19;;;;;;;123.07;56.65;;;;;;;5.73;74.84;96279.06;4982053;28;20038;-78
2022/12/31 00:38:47;;;;;;;117.18;55.90;;;;;;;5.79;75.24;96280.88;4964991;28;20475;-78
2022/12/31 00:41:13;;;;;;;133.48;58.80;;;;;;;5.28;75.11;96202.94;4965341;28;20082;-78
2022/12/31 00:43:40;;;;;;;135.18;61.10;;;;;;;5.86;74.77;96286.06;4984052;28;20046;-78
2022/12/31 00:46:06;;;;;;;137.82;64.05;;;;;;;5.85;74.71;96287.09;4966201;28;20560;-78
2022/12/31 00:48:33;;;;;;;158.25;72.22;;;;;;;5.61;75.27;96241.34;4983549;28;20512;-78
2022/12/31 00:51:00;;;;;;;158.32;74.10;;;;;;;5.95;74.84;96288.22;4965945;28;20497;-78
2022/12/31 00:53:26;;;;;;;160.80;76.10;;;;;;;5.54;74.91;96228.25;4982592;28;20082;-78
2022/12/31 00:55:57;;;;;;;162.95;77.97;;;;;;;5.78;74.70;96268.72;4965160;28;20116;-78
2022/12/31 00:58:23;;;;;;;167.48;78.45;;;;;;;5.65;74.42;96255.66;4964938;28;20117;-78
2022/12/31 01:00:49;;;;;;;168.23;77.35;;;;;;;5.67;73.83;96279.94;4982766;28;20044;-78
2022/12/31 01:03:14;;;;;;;169.50;78.72;;;;;;;5.63;73.60;96261.16;4964932;28;20034;-78
2022/12/31 01:05:39;;;;;;;175.73;79.95;;;;;;;5.74;73.37;96288.59;4982816;28;20104;-78
2022/12/31 01:08:06;;;;;;;157.10;73.70;;;;;;;4.91;73.40;96165.22;4982162;28;20351;-78
2022/12/31 01:13:15;;;;;;;144.82;68.70;;;;;;;5.44;73.12;96262.91;4982790;28;20041;-78
2022/12/31 01:15:40;;;;;;;168.18;74.32;;;;;;;5.35;72.83;96234.47;4983209;28;20034;-78
2022/12/31 01:18:07;;;;;;;159.98;75.80;;;;;;;5.75;72.88;96309.44;4965786;28;20674;-78
2022/12/31 01:20:41;;;;;;;173.77;76.70;;;;;;;5.75;72.33;96308.63;4964758;28;20058;-78
2022/12/31 01:23:08;;;;;;;163.27;73.07;;;;;;;5.72;73.02;96312.47;4982233;28;20042;-78
2022/12/31 01:25:38;;;;;;;153.85;72.65;;;;;;;5.31;72.14;96242.00;4982795;28;20046;-78
2022/12/31 01:28:05;;;;;;;152.10;69.07;;;;;;;5.69;72.74;96315.56;4983243;28;20045;-78
2022/12/31 01:30:31;;;;;;;146.52;69.65;;;;;;;5.54;72.38;96291.38;4982871;28;20029;-78
2022/12/31 01:32:57;;;;;;;154.27;71.85;;;;;;;5.63;72.69;96302.47;4982158;28;20039;-78
2022/12/31 01:35:22;;;;;;;151.18;70.35;;;;;;;4.89;72.02;96190.09;4982789;28;20133;-78
2022/12/31 01:37:48;;;;;;;141.07;66.10;;;;;;;5.34;72.20;96261.81;4982648;28;20034;-78
2022/12/31 01:40:13;;;;;;;143.07;66.93;;;;;;;5.35;72.72;96297.59;4963998;28;20484;-78
2022/12/31 01:42:39;;;;;;;132.30;60.67;;;;;;;4.91;72.40;96212.53;4964337;28;20034;-78
2022/12/31 01:45:10;;;;;;;128.07;63.15;;;;;;;3.45;72.62;95988.59;4964883;28;20136;-78
2022/12/31 01:47:45;;;;;;;140.82;64.28;;;;;;;4.94;72.34;96240.22;4981648;28;20035;-78
2022/12/31 01:50:17;;;;;;;132.55;61.28;;;;;;;5.33;72.96;96294.38;4982167;28;20047;-79
2022/12/31 01:52:49;;;;;;;131.80;60.17;;;;;;;5.38;72.76;96320.84;4981989;28;20560;-78
2022/12/31 01:55:35;;;;;;;133.85;60.42;;;;;;;5.39;72.65;96325.09;4964546;28;20222;-78
2022/12/31 01:58:09;;;;;;;130.52;59.22;;;;;;;5.35;72.82;96327.34;4964190;28;20108;-78
2022/12/31 02:00:34;;;;;;;118.32;55.88;;;;;;;4.97;72.43;96271.34;4964354;28;20528;-78
2022/12/31 02:03:01;;;;;;;130.90;56.78;;;;;;;5.16;72.73;96301.97;4981809;28;20038;-77
2022/12/31 02:05:32;;;;;;;132.68;62.42;;;;;;;5.16;73.05;96301.16;4981734;28;20049;-78
2022/12/31 02:07:58;;;;;;;138.48;61.35;;;;;;;5.29;72.97;96320.28;4982059;28;20515;-78
2022/12/31 02:10:23;;;;;;;125.55;56.78;;;;;;;5.05;72.95;96286.88;4981660;28;20034;-78
2022/12/31 02:12:49;;;;;;;125.35;54.60;;;;;;;5.01;73.08;96283.06;4981284;28;20121;-78
2022/12/31 02:15:17;;;;;;;126.55;56.22;;;;;;;4.77;72.59;96255.69;4981861;28;20567;-78
2022/12/31 02:18:23;;;;;;;120.18;55.20;;;;;;;4.82;72.82;96266.38;4981850;28;20083;-79
2022/12/31 02:20:57;;;;;;;117.03;55.80;;;;;;;5.26;72.81;96335.72;4958445;28;20058;-79
2022/12/31 02:23:37;;;;;;;134.50;59.55;;;;;;;4.49;72.91;96239.47;4982411;28;20042;-79
2022/12/31 02:26:21;;;;;;;138.23;61.45;;;;;;;5.04;73.21;96330.75;4981773;28;20030;-79
2022/12/31 02:29:08;;;;;;;128.98;60.08;;;;;;;5.11;72.89;96329.94;4964154;28;20053;-79
2022/12/31 02:31:59;;;;;;;137.57;60.78;;;;;;;4.69;73.33;96276.16;4982059;28;20049;-79
2022/12/31 02:34:32;;;;;;;122.67;57.83;;;;;;;5.10;73.05;96344.09;4980995;28;20489;-79
2022/12/31 02:37:01;;;;;;;130.18;58.92;;;;;;;5.09;73.32;96342.47;4980897;28;20130;-81
2022/12/31 02:39:28;;;;;;;119.93;57.08;;;;;;;4.78;73.46;96296.72;4979079;28;20121;-82
2022/12/31 02:41:53;;;;;;;110.78;54.50;;;;;;;4.93;73.21;96325.38;4979617;28;20042;-82
2022/12/31 02:44:26;;;;;;;126.22;57.78;;;;;;;5.08;72.97;96360.06;4961756;28;20108;-81
2022/12/31 02:47:07;;;;;;;116.38;54.50;;;;;;;5.08;73.32;96360.06;4961244;28;20052;-81
2022/12/31 02:49:51;;;;;;;117.22;54.35;;;;;;;5.08;73.44;96354.81;4974524;28;20148;-81
2022/12/31 02:52:42;;;;;;;113.40;52.38;;;;;;;5.04;73.51;96351.78;4959410;28;20058;-82
2022/12/31 02:55:26;;;;;;;108.05;52.38;;;;;;;5.03;73.72;96341.50;4978421;28;20112;-81
2022/12/31 02:58:10;;;;;;;112.38;50.10;;;;;;;5.04;73.35;96357.03;4978693;28;20118;-81
2022/12/31 03:03:28;;;;;;;107.95;51.42;;;;;;;4.73;74.23;96308.91;4978067;28;20053;-81
2022/12/31 03:05:55;;;;;;;104.78;50.03;;;;;;;5.03;73.66;96352.78;4977817;28;20096;-81
2022/12/31 03:08:23;;;;;;;109.05;48.60;;;;;;;4.84;73.68;96326.63;4960577;28;20504;-81
2022/12/31 03:10:48;;;;;;;101.22;49.65;;;;;;;5.02;73.65;96347.78;4959898;28;20511;-82
2022/12/31 03:13:14;;;;;;;100.03;46.58;;;;;;;4.72;74.00;96309.91;4959793;28;20046;-81
2022/12/31 03:15:39;;;;;;;103.03;46.22;;;;;;;4.37;73.99;96264.75;4977526;28;20065;-81
2022/12/31 03:18:06;;;;;;;94.57;43.85;;;;;;;4.92;73.81;96335.06;4978057;28;20112;-81
2022/12/31 03:23:29;;;;;;;91.55;42.22;;;;;;;4.49;74.00;96273.63;4978027;28;20165;-81
2022/12/31 03:25:55;;;;;;;102.80;44.42;;;;;;;4.63;73.70;96299.63;4977288;28;20095;-81
2022/12/31 03:28:23;;;;;;;92.05;42.78;;;;;;;4.72;73.60;96318.59;4976851;28;20541;-80
2022/12/31 03:30:52;;;;;;;91.43;41.92;;;;;;;4.75;74.11;96331.31;4976864;28;20477;-81
2022/12/31 03:33:18;;;;;;;96.40;44.70;;;;;;;4.58;73.99;96298.63;4958754;28;20045;-80
2022/12/31 03:35:46;;;;;;;93.18;43.40;;;;;;;4.57;74.40;96304.91;4976535;28;20042;-80
2022/12/31 03:38:12;;;;;;;95.82;41.40;;;;;;;4.79;74.12;96343.03;4958743;28;20042;-80
2022/12/31 03:40:41;;;;;;;97.55;43.10;;;;;;;4.20;73.92;96246.03;4976272;28;20034;-81
2022/12/31 03:43:07;;;;;;;113.78;47.28;;;;;;;4.32;74.39;96291.66;4958926;28;20426;-80
2022/12/31 03:45:33;;;;;;;96.25;45.13;;;;;;;4.47;74.01;96301.91;4959098;28;20038;-81
2022/12/31 03:48:00;;;;;;;107.60;47.75;;;;;;;4.69;74.55;96344.47;4976644;28;20638;-80
2022/12/31 03:50:25;;;;;;;105.95;47.35;;;;;;;3.98;74.03;96245.50;4976511;28;20053;-81
2022/12/31 03:52:51;;;;;;;94.13;45.83;;;;;;;4.15;74.04;96277.38;4976584;28;20444;-80
2022/12/31 03:55:16;;;;;;;103.30;49.22;;;;;;;3.87;74.15;96220.72;4976869;28;20204;-81
2022/12/31 03:57:42;;;;;;;106.25;47.58;;;;;;;4.10;73.98;96267.50;4976941;28;20046;-80
2022/12/31 04:00:12;;;;;;;90.05;46.03;;;;;;;4.10;74.29;96274.56;4976486;28;20053;-81
2022/12/31 04:02:37;;;;;;;105.18;46.53;;;;;;;4.40;74.26;96333.47;4976373;28;20038;-80
2022/12/31 04:05:03;;;;;;;90.72;44.97;;;;;;;4.61;74.40;96358.66;4976176;28;20064;-80
2022/12/31 04:07:29;;;;;;;99.50;45.33;;;;;;;4.60;74.20;96349.94;4977005;28;20412;-80
2022/12/31 04:09:54;;;;;;;99.10;46.00;;;;;;;4.31;74.94;96328.63;4976637;28;20042;-81
2022/12/31 04:12:19;;;;;;;98.90;45.63;;;;;;;4.11;74.83;96294.56;4976378;28;20042;-81
2022/12/31 04:14:45;;;;;;;90.22;44.17;;;;;;;4.54;74.43;96363.94;4958441;28;20042;-80
2022/12/31 04:17:10;;;;;;;97.60;44.13;;;;;;;4.45;74.79;96361.72;4975972;28;20045;-82
2022/12/31 04:19:36;;;;;;;96.07;44.65;;;;;;;4.13;74.83;96316.94;4976638;28;20860;-81
2022/12/31 04:22:02;;;;;;;97.28;44.55;;;;;;;4.02;74.84;96299.22;4976820;28;20069;-81
2022/12/31 04:24:28;;;;;;;97.95;48.78;;;;;;;4.21;74.65;96337.72;4959233;28;20508;-80
2022/12/31 04:26:53;;;;;;;100.05;46.47;;;;;;;4.06;74.40;96303.03;4959145;28;20117;-80
2022/12/31 04:29:18;;;;;;;103.70;45.28;;;;;;;3.72;74.71;96243.75;4976454;28;20517;-81
2022/12/31 04:31:44;;;;;;;94.50;45.90;;;;;;;4.48;74.76;96363.94;4976939;28;20046;-80
2022/12/31 04:34:09;;;;;;;97.95;46.53;;;;;;;4.03;74.49;96313.16;4959096;28;20038;-80
2022/12/31 04:36:35;;;;;;;105.38;49.10;;;;;;;4.02;74.29;96319.41;4958809;28;20049;-80
2022/12/31 04:39:00;;;;;;;106.90;50.50;;;;;;;4.02;74.31;96327.28;4976048;28;20441;-79
2022/12/31 04:41:26;;;;;;;100.13;49.65;;;;;;;3.38;74.28;96229.03;4976191;28;20070;-81
2022/12/31 04:43:54;;;;;;;99.10;47.92;;;;;;;4.38;74.09;96390.63;4975776;28;20530;-80
2022/12/31 04:46:23;;;;;;;101.22;47.88;;;;;;;4.33;74.26;96389.63;4958138;28;20030;-80
2022/12/31 04:48:48;;;;;;;101.88;48.78;;;;;;;4.02;75.01;96369.28;4958326;28;20038;-81
2022/12/31 04:51:14;;;;;;;102.85;48.45;;;;;;;3.85;74.61;96338.19;4975969;28;20041;-79
2022/12/31 04:53:40;;;;;;;103.72;49.92;;;;;;;3.92;74.58;96350.50;4975835;28;20371;-80
2022/12/31 04:56:07;;;;;;;96.90;46.28;;;;;;;4.26;74.63;96398.34;4958413;28;20062;-80
2022/12/31 04:58:33;;;;;;;108.70;50.50;;;;;;;4.23;74.70;96390.03;4976039;28;20050;-81
2022/12/31 05:00:58;;;;;;;107.80;50.13;;;;;;;4.04;74.22;96375.94;4975864;28;20100;-80
2022/12/31 05:03:25;;;;;;;97.45;46.40;;;;;;;4.17;74.29;96404.81;4975768;28;20484;-80
2022/12/31 05:05:51;;;;;;;98.72;48.88;;;;;;;4.07;74.41;96404.41;4975808;28;20460;-81
2022/12/31 05:08:17;;;;;;;104.65;48.90;;;;;;;4.01;74.55;96391.28;4976312;28;20149;-79
2022/12/31 05:10:48;;;;;;;116.68;57.88;;;;;;;3.69;74.36;96353.53;4975373;28;20039;-79
2022/12/31 05:13:14;;;;;;;121.57;56.17;;;;;;;3.58;74.39;96343.66;4957369;28;20100;-80
2022/12/31 05:15:40;;;;;;;101.75;48.70;;;;;;;3.55;74.36;96360.59;4957705;28;20039;-80
2022/12/31 05:18:06;;;;;;;100.30;49.20;;;;;;;2.97;74.84;96283.47;4975618;28;20125;-80
2022/12/31 05:20:32;;;;;;;98.38;47.05;;;;;;;3.38;74.79;96360.16;4976335;28;20997;-80
2022/12/31 05:22:58;;;;;;;109.93;51.47;;;;;;;3.26;75.21;96338.16;4960861;28;20038;-80
2022/12/31 05:25:23;;;;;;;105.03;47.63;;;;;;;3.86;75.18;96426.41;4961595;28;20050;-81
2022/12/31 05:27:49;;;;;;;97.32;49.30;;;;;;;3.84;75.06;96433.66;4979117;28;20030;-80
2022/12/31 05:30:14;;;;;;;103.95;48.03;;;;;;;3.70;75.08;96423.34;4961016;28;20034;-80
2022/12/31 05:32:40;;;;;;;107.25;49.47;;;;;;;3.75;75.15;96440.13;4961379;28;20065;-81
2022/12/31 05:35:06;;;;;;;104.53;47.63;;;;;;;3.48;74.94;96397.31;4979292;28;20076;-81
2022/12/31 05:37:32;;;;;;;112.07;49.78;;;;;;;3.77;74.94;96443.34;4960993;28;20047;-81
2022/12/31 05:39:58;;;;;;;101.55;48.50;;;;;;;3.49;75.21;96408.59;4979280;28;20576;-81
2022/12/31 05:42:24;;;;;;;101.68;50.65;;;;;;;3.16;75.61;96360.53;4979471;28;20603;-80
2022/12/31 05:44:49;;;;;;;113.45;51.90;;;;;;;3.58;75.50;96425.78;4979238;28;20035;-80
2022/12/31 05:47:15;;;;;;;112.43;52.15;;;;;;;2.87;75.54;96323.16;4979114;28;20034;-80
2022/12/31 05:49:40;;;;;;;106.50;51.50;;;;;;;3.20;75.64;96367.81;4960651;28;20133;-80
2022/12/31 05:52:07;;;;;;;108.55;50.80;;;;;;;3.41;75.60;96406.97;4979308;28;20054;-82
2022/12/31 05:54:32;;;;;;;101.05;49.65;;;;;;;2.81;75.68;96318.72;4978865;28;20042;-79
2022/12/31 05:56:58;;;;;;;105.05;49.63;;;;;;;3.00;75.30;96353.81;4977260;28;20073;-80
2022/12/31 05:59:24;;;;;;;111.07;50.50;;;;;;;2.84;75.58;96334.03;4978389;28;20030;-80
2022/12/31 06:01:49;;;;;;;102.28;49.70;;;;;;;3.63;75.60;96454.84;4978123;28;20042;-80
2022/12/31 06:04:15;;;;;;;113.82;50.00;;;;;;;3.48;75.67;96428.78;4961039;28;20555;-80
2022/12/31 06:06:40;;;;;;;108.25;50.53;;;;;;;2.84;75.85;96322.72;4978532;28;20038;-79
2022/12/31 06:09:06;;;;;;;101.82;49.63;;;;;;;3.33;75.70;96404.53;4978258;28;20038;-81
2022/12/31 06:11:32;;;;;;;99.07;48.20;;;;;;;3.12;75.49;96364.56;4960797;28;20042;-80
2022/12/31 06:13:58;;;;;;;96.85;47.67;;;;;;;3.30;75.96;96389.19;4978518;28;20120;-81
2022/12/31 06:16:23;;;;;;;102.88;50.70;;;;;;;3.51;75.92;96424.94;4978223;28;20137;-79
2022/12/31 06:18:50;;;;;;;99.80;48.15;;;;;;;3.56;75.67;96424.34;4978647;28;20089;-80
2022/12/31 06:21:16;;;;;;;113.78;51.22;;;;;;;3.53;75.47;96420.31;4978509;28;20478;-81
2022/12/31 06:23:42;;;;;;;107.82;52.08;;;;;;;3.28;75.44;96379.91;4978824;28;20042;-81
2022/12/31 06:26:07;;;;;;;108.65;52.88;;;;;;;2.67;75.51;96286.41;4978533;28;20580;-81
2022/12/31 06:28:33;;;;;;;107.60;51.78;;;;;;;3.81;75.54;96470.78;4978620;28;20064;-81
2022/12/31 06:31:04;;;;;;;100.65;50.10;;;;;;;3.79;75.35;96470.22;4978377;28;20046;-81
2022/12/31 06:33:30;;;;;;;104.07;50.75;;;;;;;3.71;75.38;96456.47;4978377;28;20038;-80
2022/12/31 06:35:57;;;;;;;103.57;49.42;;;;;;;3.70;75.65;96457.47;4978179;28;20135;-79
2022/12/31 06:38:27;;;;;;;109.65;50.63;;;;;;;3.86;75.41;96483.34;4977520;28;20425;-80
2022/12/31 06:40:53;;;;;;;90.05;46.42;;;;;;;3.70;75.38;96458.28;4977615;28;20043;-79
2022/12/31 06:43:19;;;;;;;101.57;48.75;;;;;;;3.35;75.14;96407.78;4977162;28;20638;-80
2022/12/31 06:45:44;;;;;;;101.72;47.72;;;;;;;3.75;76.80;96494.41;4977405;28;20140;-79
2022/12/31 06:48:10;;;;;;;102.55;51.33;;;;;;;3.75;76.47;96470.78;4977920;28;20038;-79
2022/12/31 06:50:35;;;;;;;107.53;50.13;;;;;;;3.81;76.12;96483.13;4977990;28;20095;-80
2022/12/31 06:53:01;;;;;;;104.28;49.95;;;;;;;3.64;76.03;96442.53;4976986;28;20042;-80
2022/12/31 06:55:26;;;;;;;105.72;50.58;;;;;;;3.91;75.80;96511.59;4977495;28;20134;-79
2022/12/31 06:57:52;;;;;;;104.07;48.00;;;;;;;3.45;75.85;96428.34;4958717;28;20151;-80
2022/12/31 07:00:19;;;;;;;113.47;50.97;;;;;;;3.79;75.89;96501.69;4977462;28;20551;-80
2022/12/31 07:03:18;;;;;;;105.35;50.35;;;;;;;3.98;75.90;96507.16;4977862;28;20497;-80
2022/12/31 07:05:45;;;;;;;108.25;50.55;;;;;;;4.02;76.16;96517.09;4977145;28;20048;-80
2022/12/31 07:08:39;;;;;;;111.85;50.83;;;;;;;3.98;75.84;96488.78;4959428;28;20558;-79
2022/12/31 07:11:22;;;;;;;104.55;51.75;;;;;;;4.13;76.06;96516.47;4977491;28;20133;-80
2022/12/31 07:14:15;;;;;;;107.85;50.13;;;;;;;4.19;76.01;96520.94;4960074;28;20042;-80
2022/12/31 07:17:11;;;;;;;99.15;48.35;;;;;;;4.10;75.67;96509.03;4978194;28;20066;-81
2022/12/31 07:20:09;;;;;;;108.30;53.42;;;;;;;4.27;75.44;96523.34;4959565;28;20050;-81
2022/12/31 07:22:35;;;;;;;114.82;53.83;;;;;;;3.77;76.20;96447.78;4963995;28;20653;-80
2022/12/31 07:25:01;;;;;;;115.15;54.00;;;;;;;3.88;75.90;96452.47;4960350;28;20038;-81
2022/12/31 07:27:39;;;;;;;106.43;53.28;;;;;;;4.31;75.92;96513.28;4978132;28;20049;-81
2022/12/31 07:30:08;;;;;;;120.68;55.10;;;;;;;4.48;75.77;96535.50;4978193;28;20034;-81
2022/12/31 07:32:52;;;;;;;110.45;53.40;;;;;;;4.09;75.72;96468.03;4977570;28;20491;-81
2022/12/31 07:35:47;;;;;;;108.65;54.33;;;;;;;4.59;75.77;96537.50;4991840;28;20155;-81
2022/12/31 07:38:25;;;;;;;113.00;54.00;;;;;;;4.65;75.55;96534.06;4959049;28;20042;-80
2022/12/31 07:41:08;;;;;;;124.75;53.42;;;;;;;4.70;75.41;96538.72;4976319;28;20574;-80
2022/12/31 07:44:05;;;;;;;112.97;55.33;;;;;;;4.31;75.40;96466.00;4959145;28;20042;-79
2022/12/31 07:46:42;;;;;;;111.75;56.70;;;;;;;4.80;75.28;96539.13;4959398;28;20065;-81
2022/12/31 07:49:10;;;;;;;121.18;57.30;;;;;;;4.52;75.36;96496.50;4959983;28;20064;-81
2022/12/31 07:51:37;;;;;;;125.47;59.08;;;;;;;4.29;75.45;96465.38;4977721;28;20049;-81
2022/12/31 07:54:03;;;;;;;125.68;60.78;;;;;;;4.83;75.87;96559.72;4977569;28;20116;-81
2022/12/31 07:56:29;;;;;;;120.32;62.03;;;;;;;4.92;75.26;96555.91;4968347;28;20034;-81
2022/12/31 07:59:01;;;;;;;146.93;66.95;;;;;;;4.35;75.21;96450.66;4977310;28;20057;-81
2022/12/31 08:01:48;;;;;;;123.05;61.80;;;;;;;4.79;75.14;96515.69;4972301;28;20054;-81
2022/12/31 08:04:39;;;;;;;140.38;65.85;;;;;;;5.08;75.14;96553.84;4942270;28;20554;-81
2022/12/31 08:07:41;;;;;;;139.68;64.07;;;;;;;4.97;74.96;96524.53;4959055;28;20067;-83
2022/12/31 08:10:46;;;;;;;133.68;65.10;;;;;;;4.88;74.43;96515.25;4956657;28;20457;-81
2022/12/31 08:13:12;;;;;;;144.88;68.53;;;;;;;4.93;75.26;96530.41;4974614;28;20072;-81
2022/12/31 08:15:38;;;;;;;142.73;70.68;;;;;;;4.45;75.69;96451.84;4976540;28;20121;-81
2022/12/31 08:18:05;;;;;;;144.98;70.15;;;;;;;4.91;75.36;96514.03;4976991;28;20919;-81
2022/12/31 08:20:32;;;;;;;146.40;71.63;;;;;;;4.65;75.00;96468.38;4977231;28;20054;-82
2022/12/31 08:23:33;;;;;;;150.15;72.45;;;;;;;4.86;75.52;96527.00;4977102;28;20050;-80
2022/12/31 08:26:09;;;;;;;137.60;68.95;;;;;;;5.26;75.17;96549.56;4923567;28;20437;-80
2022/12/31 08:28:49;;;;;;;147.13;72.60;;;;;;;5.26;74.89;96548.75;4970976;28;20042;-80
2022/12/31 08:31:14;;;;;;;146.93;73.82;;;;;;;5.27;74.83;96550.34;4958539;28;20508;-81
2022/12/31 08:33:56;;;;;;;141.88;76.60;;;;;;;4.63;75.19;96444.16;4976023;28;20041;-81
2022/12/31 08:36:30;;;;;;;161.73;79.20;;;;;;;5.41;74.74;96552.75;4975820;28;20069;-81
2022/12/31 08:39:04;;;;;;;155.18;77.55;;;;;;;5.49;74.44;96551.72;4975789;28;20052;-80
2022/12/31 08:41:44;;;;;;;151.82;77.15;;;;;;;5.43;74.93;96561.22;4975940;28;20038;-81
2022/12/31 08:44:35;;;;;;;157.05;79.68;;;;;;;5.46;74.76;96559.22;4976297;28;20034;-81
2022/12/31 08:47:21;;;;;;;164.98;81.00;;;;;;;5.54;74.78;96553.72;4977007;28;20464;-81
2022/12/31 08:49:47;;;;;;;165.60;78.45;;;;;;;5.23;74.83;96489.47;4976434;28;20117;-80
2022/12/31 08:52:22;;;;;;;161.30;78.95;;;;;;;5.26;74.18;96481.19;4959255;28;20045;-81
2022/12/31 08:54:48;;;;;;;149.45;78.97;;;;;;;4.87;74.20;96410.31;4977285;28;20088;-80
2022/12/31 08:57:26;;;;;;;155.18;79.40;;;;;;;5.75;73.98;96542.91;4980003;28;20046;-81
2022/12/31 09:00:04;;;;;;;152.63;80.50;;;;;;;5.70;74.73;96540.09;4981042;28;20092;-82
2022/12/31 09:02:58;;;;;;;156.00;81.68;;;;;;;5.77;74.47;96535.59;4980910;28;20038;-82
2022/12/31 09:05:46;;;;;;;148.70;76.65;;;;;;;5.79;74.06;96537.00;4981503;28;20026;-82
2022/12/31 09:08:19;;;;;;;145.80;75.90;;;;;;;5.87;74.18;96538.59;4980042;28;20434;-80
2022/12/31 09:10:59;;;;;;;143.60;71.55;;;;;;;5.96;73.95;96536.53;4993909;28;20380;-80
2022/12/31 09:13:24;;;;;;;131.63;68.90;;;;;;;6.05;73.48;96533.44;4979706;28;20191;-80
2022/12/31 09:15:56;;;;;;;127.50;65.53;;;;;;;6.14;73.42;96540.09;4979263;28;20030;-81
2022/12/31 09:18:23;;;;;;;112.25;62.22;;;;;;;6.14;73.18;96526.91;4979508;28;20121;-81
2022/12/31 09:20:49;;;;;;;122.00;60.05;;;;;;;6.27;72.81;96543.63;4979060;28;20141;-82
2022/12/31 09:23:15;;;;;;;130.15;67.45;;;;;;;5.64;73.08;96454.91;4962155;28;20045;-82
2022/12/31 09:26:01;;;;;;;126.68;62.28;;;;;;;6.18;73.13;96535.19;4979906;28;20481;-81
2022/12/31 09:28:42;;;;;;;125.75;61.28;;;;;;;6.19;72.77;96531.53;4979720;28;20034;-80
2022/12/31 09:31:16;;;;;;;107.07;56.20;;;;;;;6.17;72.80;96526.50;4979704;28;20038;-80
2022/12/31 09:33:58;;;;;;;110.63;56.63;;;;;;;6.20;72.93;96523.41;4961402;28;20046;-81
2022/12/31 09:36:40;;;;;;;91.45;47.58;;;;;;;6.08;72.69;96484.81;4979407;28;20046;-80
2022/12/31 09:39:14;;;;;;;;;;;;;;;6.38;72.33;96500.81;4961809;28;20048;-80
2022/12/31 09:41:59;;;;;;;101.25;51.67;;;;;;;6.40;72.66;96494.31;4979545;28;19918;-81
2022/12/31 09:44:27;;;;;;;99.95;52.47;;;;;;;6.49;72.58;96497.47;4979975;28;20516;-80
2022/12/31 09:47:17;;;;;;;93.40;46.03;;;;;;;6.58;72.14;96486.44;4993919;28;20117;-80
2022/12/31 09:50:10;;;;;;;75.70;39.20;;;;;;;6.50;72.21;96488.53;4962154;28;20030;-80
2022/12/31 09:53:06;;;;;;;66.22;34.10;;;;;;;6.59;71.54;96484.59;4978761;28;20413;-82
2022/12/31 09:55:36;;;;;;;76.43;37.63;;;;;;;6.08;72.03;96398.72;4978286;28;20034;-80
2022/12/31 09:58:11;;;;;;;64.45;34.65;;;;;;;6.67;71.38;96480.88;4960888;28;20039;-80
2022/12/31 10:00:46;;;;;;;67.72;34.38;;;;;;;6.79;70.97;96482.59;4978131;28;20034;-80
2022/12/31 10:03:40;;;;;;;61.63;34.08;;;;;;;6.76;71.24;96476.97;4977784;28;20092;-81
2022/12/31 10:06:20;;;;;;;72.78;38.40;;;;;;;6.89;71.32;96472.34;4960875;28;20073;-79
2022/12/31 10:09:08;;;;;;;76.63;40.63;;;;;;;6.95;71.19;96468.03;4960661;28;20089;-80
2022/12/31 10:11:49;;;;;;;72.65;40.95;;;;;;;6.94;71.29;96438.22;4978715;28;20121;-81
2022/12/31 10:14:35;;;;;;;71.47;38.10;;;;;;;7.22;71.08;96468.56;4977856;28;20136;-80
2022/12/31 10:17:01;;;;;;;68.03;36.55;;;;;;;7.26;70.94;96462.59;4978024;28;20047;-81
2022/12/31 10:19:38;;;;;;;67.93;36.28;;;;;;;7.51;70.75;96459.06;4977930;28;20038;-80
2022/12/31 10:22:06;;;;;;;74.45;36.88;;;;;;;8.43;69.28;96450.63;4978998;28;20047;-80
2022/12/31 10:24:47;;;;;;;70.85;35.53;;;;;;;8.91;66.87;96394.03;4978854;28;20039;-80
2022/12/31 10:27:21;;;;;;;55.33;29.63;;;;;;;10.23;64.01;96444.19;4978795;28;20030;-80
2022/12/31 10:30:15;;;;;;;61.67;30.15;;;;;;;11.02;60.46;96434.25;4978634;28;20489;-80
2022/12/31 10:33:15;;;;;;;46.80;27.15;;;;;;;11.71;57.82;96434.53;4978819;28;20120;-81
2022/12/31 10:35:57;;;;;;;48.47;24.83;;;;;;;11.93;55.68;96435.31;4960621;28;20118;-80
2022/12/31 10:38:33;;;;;;;45.80;21.95;;;;;;;12.37;54.83;96435.97;4960793;28;20092;-80
2022/12/31 10:41:23;;;;;;;43.33;21.80;;;;;;;12.74;53.81;96430.66;4978623;28;20460;-80
2022/12/31 10:44:22;;;;;;;43.20;21.38;;;;;;;12.71;52.61;96377.97;4978115;28;20101;-80
2022/12/31 10:47:23;;;;;;;32.33;20.77;;;;;;;13.40;51.98;96429.19;4970340;28;20057;-81
2022/12/31 10:50:15;;;;;;;37.40;21.50;;;;;;;13.64;51.40;96426.88;4977880;28;20488;-81
2022/12/31 10:53:10;;;;;;;40.42;20.80;;;;;;;13.77;50.54;96402.38;4978691;28;20038;-80
2022/12/31 10:55:59;;;;;;;38.00;18.50;;;;;;;14.16;49.47;96424.06;4967364;28;20373;-80
2022/12/31 10:58:43;;;;;;;33.65;19.25;;;;;;;14.00;49.60;96413.63;4978073;28;20123;-81
2022/12/31 11:01:32;;;;;;;42.25;20.42;;;;;;;13.92;49.24;96417.63;4977973;28;20038;-80
2022/12/31 11:04:22;;;;;;;37.45;19.95;;;;;;;13.96;49.02;96424.00;4978052;28;20129;-81
2022/12/31 11:07:02;;;;;;;35.22;19.48;;;;;;;13.91;49.36;96429.34;4978514;28;20501;-82
2022/12/31 11:09:55;;;;;;;35.22;21.02;;;;;;;14.01;49.32;96428.56;4978782;28;20442;-82
2022/12/31 11:12:29;;;;;;;38.55;21.73;;;;;;;13.66;49.08;96424.75;4960577;28;20520;-81
2022/12/31 11:15:23;;;;;;;43.40;21.20;;;;;;;13.40;49.96;96409.75;4978624;28;20145;-82
2022/12/31 11:17:57;;;;;;;42.50;23.40;;;;;;;13.26;50.25;96414.75;4978347;28;20497;-81
2022/12/31 11:20:43;;;;;;;39.45;22.33;;;;;;;13.11;50.63;96404.81;4977744;28;20090;-81
2022/12/31 11:23:30;;;;;;;37.00;23.42;;;;;;;13.14;50.98;96404.31;4978698;28;20493;-82
2022/12/31 11:26:07;;;;;;;34.83;23.55;;;;;;;13.18;51.36;96393.94;4978257;28;20674;-81
2022/12/31 11:28:54;;;;;;;49.63;24.60;;;;;;;13.23;51.48;96393.97;4978502;28;20424;-82
2022/12/31 11:31:42;;;;;;;43.90;26.17;;;;;;;13.12;50.90;96392.28;4961874;28;20646;-81
2022/12/31 11:34:16;;;;;;;44.10;25.48;;;;;;;13.13;51.14;96400.03;4960353;28;20487;-82
2022/12/31 11:37:09;;;;;;;58.03;28.92;;;;;;;13.07;51.22;96392.25;4978601;28;20112;-81
2022/12/31 11:39:56;;;;;;;48.42;26.02;;;;;;;12.97;51.37;96398.31;4977437;28;20034;-83
2022/12/31 11:42:50;;;;;;;47.67;26.70;;;;;;;12.89;51.82;96385.50;4977738;28;20316;-82
2022/12/31 11:45:19;;;;;;;49.20;27.10;;;;;;;12.82;52.17;96384.13;4960274;28;20488;-81
2022/12/31 11:48:02;;;;;;;44.33;26.23;;;;;;;12.74;52.18;96383.56;4959935;28;20069;-79
2022/12/31 11:50:55;;;;;;;51.90;28.30;;;;;;;12.79;52.56;96361.50;4976677;28;20061;-80
2022/12/31 11:53:26;;;;;;;58.28;30.33;;;;;;;12.89;52.24;96371.41;4958347;28;20026;-80
2022/12/31 11:56:19;;;;;;;50.47;28.55;;;;;;;12.93;52.24;96372.47;4976442;28;20053;-80